sensor_id;sensor_type;location;lat;lon;timestamp;temperature;humidity
60293;DHT22;52402;52.670;6.750;2023-03-11T00:00:52;-0.20;99.90
60293;DHT22;52402;52.670;6.750;2023-03-11T00:03:19;-0.20;99.90
60293;DHT22;52402;52.670;6.750;2023-03-11T00:05:47;-0.20;99.90
60293;DHT22;52402;52.670;6.750;2023-03-11T00:08:16;-0.30;99.90
60293;DHT22;52402;52.670;6.750;2023-03-11T00:10:44;-0.20;99.90
60293;DHT22;52402;52.670;6.750;2023-03-11T00:13:12;-0.30;99.90
60293;DHT22;52402;52.670;6.750;2023-03-11T00:15:38;-0.20;99.90
60293;DHT22;52402;52.670;6.750;2023-03-11T00:18:04;-0.20;99.90
60293;DHT22;52402;52.670;6.750;2023-03-11T00:20:33;-0.10;99.90
60293;DHT22;52402;52.670;6.750;2023-03-11T00:23:00;-0.10;99.90
60293;DHT22;52402;52.670;6.750;2023-03-11T00:25:28;-0.10;99.90
60293;DHT22;52402;52.670;6.750;2023-03-11T00:27:55;-0.10;99.90
60293;DHT22;52402;52.670;6.750;2023-03-11T00:30:21;0.00;99.90
60293;DHT22;52402;52.670;6.750;2023-03-11T00:32:48;0.00;99.90
60293;DHT22;52402;52.670;6.750;2023-03-11T00:35:17;0.10;99.90
60293;DHT22;52402;52.670;6.750;2023-03-11T00:37:44;0.10;99.90
60293;DHT22;52402;52.670;6.750;2023-03-11T00:40:20;0.10;99.90
60293;DHT22;52402;52.670;6.750;2023-03-11T00:42:47;0.10;99.90
60293;DHT22;52402;52.670;6.750;2023-03-11T00:45:14;0.10;99.90
60293;DHT22;52402;52.670;6.750;2023-03-11T00:47:40;0.10;99.90
60293;DHT22;52402;52.670;6.750;2023-03-11T00:50:07;0.10;99.90
60293;DHT22;52402;52.670;6.750;2023-03-11T00:52:34;0.10;99.90
60293;DHT22;52402;52.670;6.750;2023-03-11T00:54:59;0.10;99.90
60293;DHT22;52402;52.670;6.750;2023-03-11T00:57:25;0.20;99.90
60293;DHT22;52402;52.670;6.750;2023-03-11T00:59:53;0.10;99.90
60293;DHT22;52402;52.670;6.750;2023-03-11T01:02:19;0.10;99.90
60293;DHT22;52402;52.670;6.750;2023-03-11T01:04:45;0.10;99.90
60293;DHT22;52402;52.670;6.750;2023-03-11T01:07:10;0.10;99.90
60293;DHT22;52402;52.670;6.750;2023-03-11T01:09:36;0.10;99.90
60293;DHT22;52402;52.670;6.750;2023-03-11T01:12:02;0.10;99.90
60293;DHT22;52402;52.670;6.750;2023-03-11T01:14:27;0.10;99.90
60293;DHT22;52402;52.670;6.750;2023-03-11T01:16:53;0.00;99.90
60293;DHT22;52402;52.670;6.750;2023-03-11T01:19:19;0.00;99.90
60293;DHT22;52402;52.670;6.750;2023-03-11T01:21:45;-0.10;99.90
60293;DHT22;52402;52.670;6.750;2023-03-11T01:24:11;-0.10;99.90
60293;DHT22;52402;52.670;6.750;2023-03-11T01:26:36;-0.10;99.90
60293;DHT22;52402;52.670;6.750;2023-03-11T01:29:02;-0.10;99.90
60293;DHT22;52402;52.670;6.750;2023-03-11T01:31:28;-0.10;99.90
60293;DHT22;52402;52.670;6.750;2023-03-11T01:33:53;-0.20;99.90
60293;DHT22;52402;52.670;6.750;2023-03-11T01:36:19;-0.20;99.90
60293;DHT22;52402;52.670;6.750;2023-03-11T01:38:45;-0.20;99.90
60293;DHT22;52402;52.670;6.750;2023-03-11T01:41:11;-0.10;99.90
60293;DHT22;52402;52.670;6.750;2023-03-11T01:43:55;-0.10;99.90
60293;DHT22;52402;52.670;6.750;2023-03-11T01:46:32;-0.10;99.90
60293;DHT22;52402;52.670;6.750;2023-03-11T01:49:00;-0.10;99.90
60293;DHT22;52402;52.670;6.750;2023-03-11T01:51:38;-0.10;99.90
60293;DHT22;52402;52.670;6.750;2023-03-11T01:54:15;-0.10;99.90
60293;DHT22;52402;52.670;6.750;2023-03-11T01:56:41;-0.10;99.90
60293;DHT22;52402;52.670;6.750;2023-03-11T01:59:09;-0.10;99.90
60293;DHT22;52402;52.670;6.750;2023-03-11T02:01:40;-0.10;99.90
60293;DHT22;52402;52.670;6.750;2023-03-11T02:04:08;-0.10;99.90
60293;DHT22;52402;52.670;6.750;2023-03-11T02:06:34;-0.10;99.90
60293;DHT22;52402;52.670;6.750;2023-03-11T02:09:00;-0.10;99.90
60293;DHT22;52402;52.670;6.750;2023-03-11T02:11:29;-0.20;99.90
60293;DHT22;52402;52.670;6.750;2023-03-11T02:13:59;-0.20;99.90
60293;DHT22;52402;52.670;6.750;2023-03-11T02:16:25;-0.20;99.90
60293;DHT22;52402;52.670;6.750;2023-03-11T02:18:50;-0.20;99.90
60293;DHT22;52402;52.670;6.750;2023-03-11T02:21:30;-0.20;99.90
60293;DHT22;52402;52.670;6.750;2023-03-11T02:27:06;-0.10;99.90
60293;DHT22;52402;52.670;6.750;2023-03-11T02:29:33;-0.10;99.90
60293;DHT22;52402;52.670;6.750;2023-03-11T02:32:00;-0.10;99.90
60293;DHT22;52402;52.670;6.750;2023-03-11T02:34:33;-0.10;99.90
60293;DHT22;52402;52.670;6.750;2023-03-11T02:36:59;-0.10;99.90
60293;DHT22;52402;52.670;6.750;2023-03-11T02:39:40;-0.10;99.90
60293;DHT22;52402;52.670;6.750;2023-03-11T02:42:17;-0.10;99.90
60293;DHT22;52402;52.670;6.750;2023-03-11T02:44:45;-0.10;99.90
60293;DHT22;52402;52.670;6.750;2023-03-11T02:47:13;-0.10;99.90
60293;DHT22;52402;52.670;6.750;2023-03-11T02:49:39;-0.20;99.90
60293;DHT22;52402;52.670;6.750;2023-03-11T02:52:05;-0.10;99.90
60293;DHT22;52402;52.670;6.750;2023-03-11T02:54:31;-0.10;99.90
60293;DHT22;52402;52.670;6.750;2023-03-11T02:56:57;-0.10;99.90
60293;DHT22;52402;52.670;6.750;2023-03-11T02:59:22;-0.10;99.90
60293;DHT22;52402;52.670;6.750;2023-03-11T03:01:48;-0.10;99.90
60293;DHT22;52402;52.670;6.750;2023-03-11T03:04:13;-0.10;99.90
60293;DHT22;52402;52.670;6.750;2023-03-11T03:06:39;-0.20;99.90
60293;DHT22;52402;52.670;6.750;2023-03-11T03:09:05;-0.10;99.90
60293;DHT22;52402;52.670;6.750;2023-03-11T03:11:30;-0.20;99.90
60293;DHT22;52402;52.670;6.750;2023-03-11T03:13:57;-0.20;99.90
60293;DHT22;52402;52.670;6.750;2023-03-11T03:16:23;-0.20;99.90
60293;DHT22;52402;52.670;6.750;2023-03-11T03:18:48;-0.20;99.90
60293;DHT22;52402;52.670;6.750;2023-03-11T03:21:14;-0.20;99.90
60293;DHT22;52402;52.670;6.750;2023-03-11T03:23:39;-0.20;99.90
60293;DHT22;52402;52.670;6.750;2023-03-11T03:26:05;-0.30;99.90
60293;DHT22;52402;52.670;6.750;2023-03-11T03:28:31;-0.40;99.90
60293;DHT22;52402;52.670;6.750;2023-03-11T03:31:06;-0.40;99.90
60293;DHT22;52402;52.670;6.750;2023-03-11T03:33:32;-0.50;99.90
60293;DHT22;52402;52.670;6.750;2023-03-11T03:35:57;-0.60;99.90
60293;DHT22;52402;52.670;6.750;2023-03-11T03:38:23;-0.60;99.90
60293;DHT22;52402;52.670;6.750;2023-03-11T03:40:49;-0.60;99.90
60293;DHT22;52402;52.670;6.750;2023-03-11T03:43:14;-0.70;99.90
60293;DHT22;52402;52.670;6.750;2023-03-11T03:45:40;-0.70;99.90
60293;DHT22;52402;52.670;6.750;2023-03-11T03:48:06;-0.70;99.90
60293;DHT22;52402;52.670;6.750;2023-03-11T03:50:32;-0.80;99.90
60293;DHT22;52402;52.670;6.750;2023-03-11T03:52:57;-0.80;99.90
60293;DHT22;52402;52.670;6.750;2023-03-11T03:55:23;-0.80;99.90
60293;DHT22;52402;52.670;6.750;2023-03-11T03:57:49;-0.80;99.90
60293;DHT22;52402;52.670;6.750;2023-03-11T04:00:14;-0.80;99.90
60293;DHT22;52402;52.670;6.750;2023-03-11T04:02:41;-0.80;99.90
60293;DHT22;52402;52.670;6.750;2023-03-11T04:05:07;-0.80;99.90
60293;DHT22;52402;52.670;6.750;2023-03-11T04:07:34;-0.80;99.90
60293;DHT22;52402;52.670;6.750;2023-03-11T04:10:00;-0.80;99.90
60293;DHT22;52402;52.670;6.750;2023-03-11T04:12:25;-0.80;99.90
60293;DHT22;52402;52.670;6.750;2023-03-11T04:14:52;-0.90;99.90
60293;DHT22;52402;52.670;6.750;2023-03-11T04:17:17;-0.90;99.90
60293;DHT22;52402;52.670;6.750;2023-03-11T04:19:43;-1.00;99.90
60293;DHT22;52402;52.670;6.750;2023-03-11T04:22:10;-1.00;99.90
60293;DHT22;52402;52.670;6.750;2023-03-11T04:24:35;-1.10;99.90
60293;DHT22;52402;52.670;6.750;2023-03-11T04:27:01;-1.10;99.90
60293;DHT22;52402;52.670;6.750;2023-03-11T04:29:27;-1.10;99.90
60293;DHT22;52402;52.670;6.750;2023-03-11T04:31:52;-1.10;99.90
60293;DHT22;52402;52.670;6.750;2023-03-11T04:34:18;-1.20;99.90
60293;DHT22;52402;52.670;6.750;2023-03-11T04:36:44;-1.20;99.90
60293;DHT22;52402;52.670;6.750;2023-03-11T04:39:10;-1.20;99.90
60293;DHT22;52402;52.670;6.750;2023-03-11T04:41:36;-1.30;99.90
60293;DHT22;52402;52.670;6.750;2023-03-11T04:44:01;-1.30;99.90
60293;DHT22;52402;52.670;6.750;2023-03-11T04:46:27;-1.40;99.90
60293;DHT22;52402;52.670;6.750;2023-03-11T04:48:53;-1.40;99.90
60293;DHT22;52402;52.670;6.750;2023-03-11T04:51:18;-1.50;99.90
60293;DHT22;52402;52.670;6.750;2023-03-11T04:53:44;-1.50;99.90
60293;DHT22;52402;52.670;6.750;2023-03-11T04:56:09;-1.50;99.90
60293;DHT22;52402;52.670;6.750;2023-03-11T04:58:35;-1.50;99.90
60293;DHT22;52402;52.670;6.750;2023-03-11T05:01:01;-1.50;99.90
60293;DHT22;52402;52.670;6.750;2023-03-11T05:03:26;-1.50;99.90
60293;DHT22;52402;52.670;6.750;2023-03-11T05:05:52;-1.60;99.90
60293;DHT22;52402;52.670;6.750;2023-03-11T05:08:22;-1.60;99.90
60293;DHT22;52402;52.670;6.750;2023-03-11T05:10:48;-1.60;99.90
60293;DHT22;52402;52.670;6.750;2023-03-11T05:13:13;-1.60;99.90
60293;DHT22;52402;52.670;6.750;2023-03-11T05:15:39;-1.60;99.90
60293;DHT22;52402;52.670;6.750;2023-03-11T05:18:04;-1.70;99.90
60293;DHT22;52402;52.670;6.750;2023-03-11T05:20:30;-1.80;99.90
60293;DHT22;52402;52.670;6.750;2023-03-11T05:22:56;-1.70;99.90
60293;DHT22;52402;52.670;6.750;2023-03-11T05:25:22;-1.70;99.90
60293;DHT22;52402;52.670;6.750;2023-03-11T05:27:48;-1.70;99.90
60293;DHT22;52402;52.670;6.750;2023-03-11T05:30:14;-1.70;99.90
60293;DHT22;52402;52.670;6.750;2023-03-11T05:32:39;-1.80;99.90
60293;DHT22;52402;52.670;6.750;2023-03-11T05:35:05;-1.80;99.90
60293;DHT22;52402;52.670;6.750;2023-03-11T05:37:31;-1.80;99.90
60293;DHT22;52402;52.670;6.750;2023-03-11T05:39:57;-1.80;99.90
60293;DHT22;52402;52.670;6.750;2023-03-11T05:42:23;-1.90;99.90
60293;DHT22;52402;52.670;6.750;2023-03-11T05:44:48;-1.90;99.90
60293;DHT22;52402;52.670;6.750;2023-03-11T05:47:15;-1.90;99.90
60293;DHT22;52402;52.670;6.750;2023-03-11T05:49:42;-1.90;99.90
60293;DHT22;52402;52.670;6.750;2023-03-11T05:52:08;-1.90;99.90
60293;DHT22;52402;52.670;6.750;2023-03-11T05:54:33;-2.00;99.90
60293;DHT22;52402;52.670;6.750;2023-03-11T05:56:59;-2.00;99.90
60293;DHT22;52402;52.670;6.750;2023-03-11T05:59:25;-2.00;99.90
60293;DHT22;52402;52.670;6.750;2023-03-11T06:01:51;-2.00;99.90
60293;DHT22;52402;52.670;6.750;2023-03-11T06:04:16;-2.00;99.90
60293;DHT22;52402;52.670;6.750;2023-03-11T06:06:42;-2.00;99.90
60293;DHT22;52402;52.670;6.750;2023-03-11T06:09:14;-2.00;99.90
60293;DHT22;52402;52.670;6.750;2023-03-11T06:11:41;-2.00;99.90
60293;DHT22;52402;52.670;6.750;2023-03-11T06:14:09;-2.00;99.90
60293;DHT22;52402;52.670;6.750;2023-03-11T06:16:35;-2.00;99.90
60293;DHT22;52402;52.670;6.750;2023-03-11T06:19:00;-2.00;99.90
60293;DHT22;52402;52.670;6.750;2023-03-11T06:21:27;-2.00;99.90
60293;DHT22;52402;52.670;6.750;2023-03-11T06:23:52;-2.00;99.90
60293;DHT22;52402;52.670;6.750;2023-03-11T06:26:19;-2.00;99.90
60293;DHT22;52402;52.670;6.750;2023-03-11T06:28:46;-2.00;99.90
60293;DHT22;52402;52.670;6.750;2023-03-11T06:31:23;-2.00;99.90
60293;DHT22;52402;52.670;6.750;2023-03-11T06:33:50;-2.00;99.90
60293;DHT22;52402;52.670;6.750;2023-03-11T06:36:17;-2.00;99.90
60293;DHT22;52402;52.670;6.750;2023-03-11T06:38:43;-2.00;99.90
60293;DHT22;52402;52.670;6.750;2023-03-11T06:41:11;-1.90;99.90
60293;DHT22;52402;52.670;6.750;2023-03-11T06:43:37;-1.90;99.90
60293;DHT22;52402;52.670;6.750;2023-03-11T06:46:14;-1.90;99.90
60293;DHT22;52402;52.670;6.750;2023-03-11T06:48:40;-1.90;99.90
60293;DHT22;52402;52.670;6.750;2023-03-11T06:51:06;-1.80;99.90
60293;DHT22;52402;52.670;6.750;2023-03-11T06:53:31;-1.80;99.90
60293;DHT22;52402;52.670;6.750;2023-03-11T06:56:09;-1.80;99.90
60293;DHT22;52402;52.670;6.750;2023-03-11T06:58:36;-1.80;99.90
60293;DHT22;52402;52.670;6.750;2023-03-11T07:01:05;-1.80;99.90
60293;DHT22;52402;52.670;6.750;2023-03-11T07:03:31;-1.70;99.90
60293;DHT22;52402;52.670;6.750;2023-03-11T07:05:57;-1.70;99.90
60293;DHT22;52402;52.670;6.750;2023-03-11T07:08:23;-1.70;99.90
60293;DHT22;52402;52.670;6.750;2023-03-11T07:11:05;-1.60;99.90
60293;DHT22;52402;52.670;6.750;2023-03-11T07:13:31;-1.60;99.90
60293;DHT22;52402;52.670;6.750;2023-03-11T07:16:02;-1.50;99.90
60293;DHT22;52402;52.670;6.750;2023-03-11T07:18:28;-1.50;99.90
60293;DHT22;52402;52.670;6.750;2023-03-11T07:20:53;-1.40;99.90
60293;DHT22;52402;52.670;6.750;2023-03-11T07:23:40;-1.40;99.90
60293;DHT22;52402;52.670;6.750;2023-03-11T07:26:11;-1.40;99.90
60293;DHT22;52402;52.670;6.750;2023-03-11T07:28:37;-1.30;99.90
60293;DHT22;52402;52.670;6.750;2023-03-11T07:31:23;-1.30;99.90
60293;DHT22;52402;52.670;6.750;2023-03-11T07:33:49;-1.20;99.90
60293;DHT22;52402;52.670;6.750;2023-03-11T07:36:17;-1.20;99.90
60293;DHT22;52402;52.670;6.750;2023-03-11T07:38:44;-1.10;99.90
60293;DHT22;52402;52.670;6.750;2023-03-11T07:41:11;-1.10;99.90
60293;DHT22;52402;52.670;6.750;2023-03-11T07:43:38;-1.00;99.90
60293;DHT22;52402;52.670;6.750;2023-03-11T07:46:13;-1.00;99.90
60293;DHT22;52402;52.670;6.750;2023-03-11T07:48:45;-0.90;99.90
60293;DHT22;52402;52.670;6.750;2023-03-11T07:51:25;-0.80;99.90
60293;DHT22;52402;52.670;6.750;2023-03-11T07:53:52;-0.70;99.90
60293;DHT22;52402;52.670;6.750;2023-03-11T07:56:19;-0.60;99.90
60293;DHT22;52402;52.670;6.750;2023-03-11T07:58:45;-0.50;99.90
60293;DHT22;52402;52.670;6.750;2023-03-11T08:01:14;-0.50;99.90
60293;DHT22;52402;52.670;6.750;2023-03-11T08:03:44;-0.40;99.90
60293;DHT22;52402;52.670;6.750;2023-03-11T08:06:14;-0.30;99.90
60293;DHT22;52402;52.670;6.750;2023-03-11T08:08:40;-0.30;99.90
60293;DHT22;52402;52.670;6.750;2023-03-11T08:11:06;-0.20;99.90
60293;DHT22;52402;52.670;6.750;2023-03-11T08:13:32;-0.10;99.90
60293;DHT22;52402;52.670;6.750;2023-03-11T08:15:58;0.00;99.90
60293;DHT22;52402;52.670;6.750;2023-03-11T08:18:23;0.10;99.90
60293;DHT22;52402;52.670;6.750;2023-03-11T08:20:49;0.20;99.90
60293;DHT22;52402;52.670;6.750;2023-03-11T08:23:15;0.20;99.90
60293;DHT22;52402;52.670;6.750;2023-03-11T08:25:41;0.30;99.90
60293;DHT22;52402;52.670;6.750;2023-03-11T08:28:07;0.40;99.90
60293;DHT22;52402;52.670;6.750;2023-03-11T08:30:33;0.50;99.90
60293;DHT22;52402;52.670;6.750;2023-03-11T08:32:59;0.60;99.90
60293;DHT22;52402;52.670;6.750;2023-03-11T08:35:25;0.70;99.90
60293;DHT22;52402;52.670;6.750;2023-03-11T08:37:51;0.70;99.90
60293;DHT22;52402;52.670;6.750;2023-03-11T08:40:17;0.80;99.90
60293;DHT22;52402;52.670;6.750;2023-03-11T08:42:43;0.90;99.90
60293;DHT22;52402;52.670;6.750;2023-03-11T08:45:09;1.00;99.90
60293;DHT22;52402;52.670;6.750;2023-03-11T08:47:36;1.10;99.90
60293;DHT22;52402;52.670;6.750;2023-03-11T08:50:08;1.10;99.90
60293;DHT22;52402;52.670;6.750;2023-03-11T08:52:34;1.30;99.90
60293;DHT22;52402;52.670;6.750;2023-03-11T08:55:02;1.30;99.90
60293;DHT22;52402;52.670;6.750;2023-03-11T08:57:30;1.40;99.90
60293;DHT22;52402;52.670;6.750;2023-03-11T08:59:56;1.40;99.90
60293;DHT22;52402;52.670;6.750;2023-03-11T09:02:24;1.50;99.90
60293;DHT22;52402;52.670;6.750;2023-03-11T09:04:49;1.60;99.90
60293;DHT22;52402;52.670;6.750;2023-03-11T09:07:15;1.70;99.90
60293;DHT22;52402;52.670;6.750;2023-03-11T09:09:41;1.70;99.90
60293;DHT22;52402;52.670;6.750;2023-03-11T09:12:07;1.80;99.90
60293;DHT22;52402;52.670;6.750;2023-03-11T09:14:34;1.90;99.90
60293;DHT22;52402;52.670;6.750;2023-03-11T09:17:02;2.00;99.90
60293;DHT22;52402;52.670;6.750;2023-03-11T09:19:28;2.00;99.90
60293;DHT22;52402;52.670;6.750;2023-03-11T09:21:53;2.20;99.90
60293;DHT22;52402;52.670;6.750;2023-03-11T09:24:19;2.20;99.90
60293;DHT22;52402;52.670;6.750;2023-03-11T09:26:45;2.30;99.90
60293;DHT22;52402;52.670;6.750;2023-03-11T09:29:10;2.40;99.90
60293;DHT22;52402;52.670;6.750;2023-03-11T09:31:36;2.50;99.90
60293;DHT22;52402;52.670;6.750;2023-03-11T09:34:02;2.50;99.90
60293;DHT22;52402;52.670;6.750;2023-03-11T09:36:28;2.60;99.90
60293;DHT22;52402;52.670;6.750;2023-03-11T09:38:54;2.60;99.90
60293;DHT22;52402;52.670;6.750;2023-03-11T09:41:33;2.70;99.90
60293;DHT22;52402;52.670;6.750;2023-03-11T09:47:16;2.70;99.90
60293;DHT22;52402;52.670;6.750;2023-03-11T09:49:54;2.80;99.90
60293;DHT22;52402;52.670;6.750;2023-03-11T09:55:59;2.90;99.90
60293;DHT22;52402;52.670;6.750;2023-03-11T10:01:00;3.00;99.90
60293;DHT22;52402;52.670;6.750;2023-03-11T10:03:34;3.10;99.90
60293;DHT22;52402;52.670;6.750;2023-03-11T10:06:18;3.20;99.90
60293;DHT22;52402;52.670;6.750;2023-03-11T10:08:48;3.20;99.90
60293;DHT22;52402;52.670;6.750;2023-03-11T10:16:51;3.30;99.90
60293;DHT22;52402;52.670;6.750;2023-03-11T10:22:31;3.40;99.90
60293;DHT22;52402;52.670;6.750;2023-03-11T10:25:20;3.40;99.90
60293;DHT22;52402;52.670;6.750;2023-03-11T10:27:48;3.50;99.90
60293;DHT22;52402;52.670;6.750;2023-03-11T10:33:01;3.60;99.90
60293;DHT22;52402;52.670;6.750;2023-03-11T10:35:41;3.60;99.90
60293;DHT22;52402;52.670;6.750;2023-03-11T10:38:32;3.70;99.90
60293;DHT22;52402;52.670;6.750;2023-03-11T10:41:04;3.80;99.90
60293;DHT22;52402;52.670;6.750;2023-03-11T10:43:36;3.90;99.90
60293;DHT22;52402;52.670;6.750;2023-03-11T10:46:06;4.00;99.90
60293;DHT22;52402;52.670;6.750;2023-03-11T10:48:36;4.00;99.90
60293;DHT22;52402;52.670;6.750;2023-03-11T10:53:28;4.20;99.90
60293;DHT22;52402;52.670;6.750;2023-03-11T10:55:56;4.30;99.90
60293;DHT22;52402;52.670;6.750;2023-03-11T10:58:24;4.30;99.90
60293;DHT22;52402;52.670;6.750;2023-03-11T11:01:01;4.40;99.90
60293;DHT22;52402;52.670;6.750;2023-03-11T11:03:28;4.50;99.90
60293;DHT22;52402;52.670;6.750;2023-03-11T11:06:05;4.50;99.90
60293;DHT22;52402;52.670;6.750;2023-03-11T11:08:33;4.60;99.90
60293;DHT22;52402;52.670;6.750;2023-03-11T11:11:01;4.60;99.90
60293;DHT22;52402;52.670;6.750;2023-03-11T11:13:32;4.60;99.90
60293;DHT22;52402;52.670;6.750;2023-03-11T11:18:44;4.80;99.90
60293;DHT22;52402;52.670;6.750;2023-03-11T11:23:43;4.90;99.90
60293;DHT22;52402;52.670;6.750;2023-03-11T11:26:15;5.00;99.90
60293;DHT22;52402;52.670;6.750;2023-03-11T11:28:41;5.00;99.90
60293;DHT22;52402;52.670;6.750;2023-03-11T11:31:22;5.00;99.90
60293;DHT22;52402;52.670;6.750;2023-03-11T11:33:53;5.10;99.90
60293;DHT22;52402;52.670;6.750;2023-03-11T11:36:22;5.20;99.90
60293;DHT22;52402;52.670;6.750;2023-03-11T11:38:53;5.30;99.90
60293;DHT22;52402;52.670;6.750;2023-03-11T11:41:22;5.30;99.90
60293;DHT22;52402;52.670;6.750;2023-03-11T11:46:27;5.60;99.90
60293;DHT22;52402;52.670;6.750;2023-03-11T11:51:40;5.70;99.90
60293;DHT22;52402;52.670;6.750;2023-03-11T11:54:28;5.70;99.90
60293;DHT22;52402;52.670;6.750;2023-03-11T11:57:12;5.80;99.90
60293;DHT22;52402;52.670;6.750;2023-03-11T11:59:38;5.90;99.90
60293;DHT22;52402;52.670;6.750;2023-03-11T12:02:06;5.80;99.90
60293;DHT22;52402;52.670;6.750;2023-03-11T12:13:13;6.00;99.90
60293;DHT22;52402;52.670;6.750;2023-03-11T12:18:54;6.10;99.90
60293;DHT22;52402;52.670;6.750;2023-03-11T12:21:40;6.20;99.90
60293;DHT22;52402;52.670;6.750;2023-03-11T12:26:52;6.60;99.90
60293;DHT22;52402;52.670;6.750;2023-03-11T12:29:38;6.70;99.90
60293;DHT22;52402;52.670;6.750;2023-03-11T12:32:06;6.90;99.90
60293;DHT22;52402;52.670;6.750;2023-03-11T12:34:34;6.90;99.90
60293;DHT22;52402;52.670;6.750;2023-03-11T12:37:01;6.90;99.90
60293;DHT22;52402;52.670;6.750;2023-03-11T12:39:36;6.80;99.90
60293;DHT22;52402;52.670;6.750;2023-03-11T12:42:15;6.80;99.90
60293;DHT22;52402;52.670;6.750;2023-03-11T12:44:42;7.00;99.90
60293;DHT22;52402;52.670;6.750;2023-03-11T12:49:39;6.60;99.90
60293;DHT22;52402;52.670;6.750;2023-03-11T12:54:44;6.60;99.90
60293;DHT22;52402;52.670;6.750;2023-03-11T13:08:34;7.00;99.90
60293;DHT22;52402;52.670;6.750;2023-03-11T13:13:52;7.10;99.90
60293;DHT22;52402;52.670;6.750;2023-03-11T13:16:38;7.10;99.90
60293;DHT22;52402;52.670;6.750;2023-03-11T13:21:55;7.30;99.90
60293;DHT22;52402;52.670;6.750;2023-03-11T13:37:33;7.20;99.90
60293;DHT22;52402;52.670;6.750;2023-03-11T13:42:42;7.10;99.90
60293;DHT22;52402;52.670;6.750;2023-03-11T13:47:55;6.90;99.90
60293;DHT22;52402;52.670;6.750;2023-03-11T13:50:35;6.90;99.90
60293;DHT22;52402;52.670;6.750;2023-03-11T13:53:07;7.00;99.90
60293;DHT22;52402;52.670;6.750;2023-03-11T13:55:40;7.10;99.90
60293;DHT22;52402;52.670;6.750;2023-03-11T13:58:22;7.00;99.90
60293;DHT22;52402;52.670;6.750;2023-03-11T14:00:59;7.00;99.90
60293;DHT22;52402;52.670;6.750;2023-03-11T14:03:28;7.10;99.90
60293;DHT22;52402;52.670;6.750;2023-03-11T14:08:27;7.30;99.90
60293;DHT22;52402;52.670;6.750;2023-03-11T14:13:32;7.50;99.90
60293;DHT22;52402;52.670;6.750;2023-03-11T14:16:07;7.50;99.90
60293;DHT22;52402;52.670;6.750;2023-03-11T14:18:42;7.50;99.90
60293;DHT22;52402;52.670;6.750;2023-03-11T14:21:14;7.30;99.00
60293;DHT22;52402;52.670;6.750;2023-03-11T14:23:51;7.20;99.90
60293;DHT22;52402;52.670;6.750;2023-03-11T14:26:23;7.30;99.90
60293;DHT22;52402;52.670;6.750;2023-03-11T14:28:52;7.40;99.90
60293;DHT22;52402;52.670;6.750;2023-03-11T14:31:33;7.40;99.90
60293;DHT22;52402;52.670;6.750;2023-03-11T14:34:03;7.50;99.30
60293;DHT22;52402;52.670;6.750;2023-03-11T14:36:31;7.50;99.60
60293;DHT22;52402;52.670;6.750;2023-03-11T14:39:03;7.50;98.60
60293;DHT22;52402;52.670;6.750;2023-03-11T14:41:29;7.60;99.50
60293;DHT22;52402;52.670;6.750;2023-03-11T14:43:55;7.60;98.80
60293;DHT22;52402;52.670;6.750;2023-03-11T14:46:27;7.70;98.80
60293;DHT22;52402;52.670;6.750;2023-03-11T14:48:54;7.70;98.10
60293;DHT22;52402;52.670;6.750;2023-03-11T14:51:25;7.50;98.40
60293;DHT22;52402;52.670;6.750;2023-03-11T14:54:11;7.20;98.20
60293;DHT22;52402;52.670;6.750;2023-03-11T14:56:43;7.00;98.30
60293;DHT22;52402;52.670;6.750;2023-03-11T14:59:24;7.10;99.40
60293;DHT22;52402;52.670;6.750;2023-03-11T15:01:53;7.10;99.50
60293;DHT22;52402;52.670;6.750;2023-03-11T15:04:38;7.00;99.90
60293;DHT22;52402;52.670;6.750;2023-03-11T15:07:08;7.10;99.90
60293;DHT22;52402;52.670;6.750;2023-03-11T15:09:38;7.10;99.90
60293;DHT22;52402;52.670;6.750;2023-03-11T15:12:05;7.20;99.90
60293;DHT22;52402;52.670;6.750;2023-03-11T15:14:32;7.20;99.90
60293;DHT22;52402;52.670;6.750;2023-03-11T15:17:23;7.20;99.30
60293;DHT22;52402;52.670;6.750;2023-03-11T15:19:56;7.10;98.40
60293;DHT22;52402;52.670;6.750;2023-03-11T15:22:28;7.00;99.40
60293;DHT22;52402;52.670;6.750;2023-03-11T15:25:32;6.90;99.90
60293;DHT22;52402;52.670;6.750;2023-03-11T15:28:23;6.80;99.90
60293;DHT22;52402;52.670;6.750;2023-03-11T15:33:36;6.60;97.60
60293;DHT22;52402;52.670;6.750;2023-03-11T15:36:03;6.70;99.70
60293;DHT22;52402;52.670;6.750;2023-03-11T15:38:32;6.70;99.50
60293;DHT22;52402;52.670;6.750;2023-03-11T15:41:00;6.70;99.70
60293;DHT22;52402;52.670;6.750;2023-03-11T15:43:32;6.70;99.50
60293;DHT22;52402;52.670;6.750;2023-03-11T15:46:00;6.60;99.10
60293;DHT22;52402;52.670;6.750;2023-03-11T15:48:27;6.50;98.10
60293;DHT22;52402;52.670;6.750;2023-03-11T15:50:56;6.40;96.80
60293;DHT22;52402;52.670;6.750;2023-03-11T15:53:23;6.40;97.20
60293;DHT22;52402;52.670;6.750;2023-03-11T15:55:50;6.30;97.00
60293;DHT22;52402;52.670;6.750;2023-03-11T15:58:17;6.20;96.20
60293;DHT22;52402;52.670;6.750;2023-03-11T16:00:48;6.10;97.00
60293;DHT22;52402;52.670;6.750;2023-03-11T16:03:15;6.00;96.00
60293;DHT22;52402;52.670;6.750;2023-03-11T16:05:41;5.90;98.00
60293;DHT22;52402;52.670;6.750;2023-03-11T16:08:06;5.80;98.30
60293;DHT22;52402;52.670;6.750;2023-03-11T16:10:32;5.80;98.20
60293;DHT22;52402;52.670;6.750;2023-03-11T16:12:58;5.80;98.80
60293;DHT22;52402;52.670;6.750;2023-03-11T16:15:32;5.80;98.20
60293;DHT22;52402;52.670;6.750;2023-03-11T16:18:05;5.80;98.80
60293;DHT22;52402;52.670;6.750;2023-03-11T16:20:47;5.80;99.20
60293;DHT22;52402;52.670;6.750;2023-03-11T16:23:22;5.70;99.70
60293;DHT22;52402;52.670;6.750;2023-03-11T16:25:49;5.60;99.90
60293;DHT22;52402;52.670;6.750;2023-03-11T16:28:16;5.60;99.90
60293;DHT22;52402;52.670;6.750;2023-03-11T16:30:43;5.50;99.90
60293;DHT22;52402;52.670;6.750;2023-03-11T16:33:09;5.50;99.90
60293;DHT22;52402;52.670;6.750;2023-03-11T16:35:35;5.60;99.90
60293;DHT22;52402;52.670;6.750;2023-03-11T16:38:00;5.50;99.90
60293;DHT22;52402;52.670;6.750;2023-03-11T16:40:27;5.50;99.90
60293;DHT22;52402;52.670;6.750;2023-03-11T16:43:01;5.60;99.90
60293;DHT22;52402;52.670;6.750;2023-03-11T16:45:28;5.80;99.90
60293;DHT22;52402;52.670;6.750;2023-03-11T16:47:54;5.90;99.90
60293;DHT22;52402;52.670;6.750;2023-03-11T16:50:19;5.90;99.90
60293;DHT22;52402;52.670;6.750;2023-03-11T16:52:46;5.90;99.90
60293;DHT22;52402;52.670;6.750;2023-03-11T16:55:11;5.80;99.90
60293;DHT22;52402;52.670;6.750;2023-03-11T16:57:37;5.70;99.90
60293;DHT22;52402;52.670;6.750;2023-03-11T17:00:05;5.60;99.90
60293;DHT22;52402;52.670;6.750;2023-03-11T17:02:34;5.50;99.90
60293;DHT22;52402;52.670;6.750;2023-03-11T17:05:00;5.40;99.90
60293;DHT22;52402;52.670;6.750;2023-03-11T17:07:26;5.30;99.90
60293;DHT22;52402;52.670;6.750;2023-03-11T17:09:53;5.30;99.90
60293;DHT22;52402;52.670;6.750;2023-03-11T17:12:18;5.20;99.90
60293;DHT22;52402;52.670;6.750;2023-03-11T17:14:45;5.10;99.90
60293;DHT22;52402;52.670;6.750;2023-03-11T17:17:11;5.00;99.90
60293;DHT22;52402;52.670;6.750;2023-03-11T17:19:37;4.90;99.90
60293;DHT22;52402;52.670;6.750;2023-03-11T17:22:03;4.90;99.90
60293;DHT22;52402;52.670;6.750;2023-03-11T17:24:29;4.80;99.90
60293;DHT22;52402;52.670;6.750;2023-03-11T17:26:55;4.80;99.90
60293;DHT22;52402;52.670;6.750;2023-03-11T17:29:20;4.70;99.90